sensor_id;sensor_type;location;lat;lon;timestamp;P1;durP1;ratioP1;P2;durP2;ratioP2
10333;SDS011;5212;47.892;16.406;2022-07-01T00:00:41;7.80;;;7.10;;
10333;SDS011;5212;47.892;16.406;2022-07-01T00:03:10;7.90;;;7.20;;
10333;SDS011;5212;47.892;16.406;2022-07-01T00:05:37;10.90;;;9.57;;
10333;SDS011;5212;47.892;16.406;2022-07-01T00:08:05;10.03;;;8.93;;
10333;SDS011;5212;47.892;16.406;2022-07-01T00:10:32;8.67;;;7.90;;
10333;SDS011;5212;47.892;16.406;2022-07-01T00:13:01;8.67;;;7.87;;
10333;SDS011;5212;47.892;16.406;2022-07-01T00:15:28;8.73;;;7.93;;
10333;SDS011;5212;47.892;16.406;2022-07-01T00:17:55;10.47;;;8.90;;
10333;SDS011;5212;47.892;16.406;2022-07-01T00:20:24;9.70;;;8.80;;
10333;SDS011;5212;47.892;16.406;2022-07-01T00:22:51;9.47;;;8.57;;
10333;SDS011;5212;47.892;16.406;2022-07-01T00:25:18;9.50;;;8.60;;
10333;SDS011;5212;47.892;16.406;2022-07-01T00:27:45;9.37;;;8.50;;
10333;SDS011;5212;47.892;16.406;2022-07-01T00:30:12;9.07;;;8.27;;
10333;SDS011;5212;47.892;16.406;2022-07-01T00:32:40;9.83;;;8.93;;
10333;SDS011;5212;47.892;16.406;2022-07-01T00:35:08;9.70;;;8.73;;
10333;SDS011;5212;47.892;16.406;2022-07-01T00:37:37;12.70;;;11.40;;
10333;SDS011;5212;47.892;16.406;2022-07-01T00:40:06;13.20;;;12.00;;
10333;SDS011;5212;47.892;16.406;2022-07-01T00:42:37;15.13;;;13.73;;
10333;SDS011;5212;47.892;16.406;2022-07-01T00:45:06;14.73;;;13.40;;
10333;SDS011;5212;47.892;16.406;2022-07-01T00:47:34;13.27;;;11.97;;
10333;SDS011;5212;47.892;16.406;2022-07-01T00:50:03;12.17;;;10.97;;
10333;SDS011;5212;47.892;16.406;2022-07-01T00:52:30;11.30;;;10.20;;
10333;SDS011;5212;47.892;16.406;2022-07-01T00:54:59;11.17;;;10.07;;
10333;SDS011;5212;47.892;16.406;2022-07-01T00:57:29;11.33;;;10.33;;
10333;SDS011;5212;47.892;16.406;2022-07-01T00:59:56;11.10;;;10.10;;
10333;SDS011;5212;47.892;16.406;2022-07-01T01:02:23;11.07;;;10.07;;
10333;SDS011;5212;47.892;16.406;2022-07-01T01:04:50;11.40;;;10.40;;
10333;SDS011;5212;47.892;16.406;2022-07-01T01:07:17;11.03;;;10.03;;
10333;SDS011;5212;47.892;16.406;2022-07-01T01:09:45;10.40;;;9.30;;
10333;SDS011;5212;47.892;16.406;2022-07-01T01:12:14;11.00;;;9.90;;
10333;SDS011;5212;47.892;16.406;2022-07-01T01:14:45;9.97;;;8.97;;
10333;SDS011;5212;47.892;16.406;2022-07-01T01:17:12;12.27;;;11.07;;
10333;SDS011;5212;47.892;16.406;2022-07-01T01:19:39;11.13;;;10.10;;
10333;SDS011;5212;47.892;16.406;2022-07-01T01:22:08;10.33;;;9.33;;
10333;SDS011;5212;47.892;16.406;2022-07-01T01:24:35;9.97;;;8.90;;
10333;SDS011;5212;47.892;16.406;2022-07-01T01:27:03;9.90;;;9.00;;
10333;SDS011;5212;47.892;16.406;2022-07-01T01:29:30;10.03;;;9.13;;
10333;SDS011;5212;47.892;16.406;2022-07-01T01:31:57;10.13;;;9.23;;
10333;SDS011;5212;47.892;16.406;2022-07-01T01:34:24;10.43;;;9.53;;
10333;SDS011;5212;47.892;16.406;2022-07-01T01:36:52;11.13;;;10.13;;
10333;SDS011;5212;47.892;16.406;2022-07-01T01:39:20;12.63;;;11.43;;
10333;SDS011;5212;47.892;16.406;2022-07-01T01:41:47;11.27;;;10.17;;
10333;SDS011;5212;47.892;16.406;2022-07-01T01:44:14;10.87;;;9.87;;
10333;SDS011;5212;47.892;16.406;2022-07-01T01:46:42;10.83;;;9.83;;
10333;SDS011;5212;47.892;16.406;2022-07-01T01:49:09;10.40;;;9.40;;
10333;SDS011;5212;47.892;16.406;2022-07-01T01:51:36;9.47;;;8.57;;
10333;SDS011;5212;47.892;16.406;2022-07-01T01:54:03;11.20;;;10.00;;
10333;SDS011;5212;47.892;16.406;2022-07-01T01:56:33;11.30;;;10.20;;
10333;SDS011;5212;47.892;16.406;2022-07-01T01:59:00;12.10;;;10.97;;
10333;SDS011;5212;47.892;16.406;2022-07-01T02:01:27;13.03;;;11.67;;
10333;SDS011;5212;47.892;16.406;2022-07-01T02:03:54;11.43;;;10.33;;
10333;SDS011;5212;47.892;16.406;2022-07-01T02:06:21;13.30;;;11.07;;
10333;SDS011;5212;47.892;16.406;2022-07-01T02:08:48;13.03;;;11.83;;
10333;SDS011;5212;47.892;16.406;2022-07-01T02:11:16;12.00;;;10.90;;
10333;SDS011;5212;47.892;16.406;2022-07-01T02:13:44;10.70;;;9.70;;
10333;SDS011;5212;47.892;16.406;2022-07-01T02:16:11;10.43;;;9.23;;
10333;SDS011;5212;47.892;16.406;2022-07-01T02:18:39;10.40;;;9.40;;
10333;SDS011;5212;47.892;16.406;2022-07-01T02:21:06;9.90;;;8.93;;
10333;SDS011;5212;47.892;16.406;2022-07-01T02:23:33;10.87;;;9.87;;
10333;SDS011;5212;47.892;16.406;2022-07-01T02:26:00;11.47;;;10.27;;
10333;SDS011;5212;47.892;16.406;2022-07-01T02:28:27;10.47;;;9.47;;
10333;SDS011;5212;47.892;16.406;2022-07-01T02:30:56;9.50;;;8.60;;
10333;SDS011;5212;47.892;16.406;2022-07-01T02:33:23;10.63;;;9.63;;
10333;SDS011;5212;47.892;16.406;2022-07-01T02:35:50;9.43;;;8.57;;
10333;SDS011;5212;47.892;16.406;2022-07-01T02:38:17;10.23;;;9.17;;
10333;SDS011;5212;47.892;16.406;2022-07-01T02:40:44;10.80;;;9.80;;
10333;SDS011;5212;47.892;16.406;2022-07-01T02:43:11;10.67;;;9.77;;
10333;SDS011;5212;47.892;16.406;2022-07-01T02:45:38;10.53;;;9.53;;
10333;SDS011;5212;47.892;16.406;2022-07-01T02:48:08;10.10;;;9.20;;
10333;SDS011;5212;47.892;16.406;2022-07-01T02:50:35;9.93;;;8.93;;
10333;SDS011;5212;47.892;16.406;2022-07-01T02:53:02;9.73;;;8.83;;
10333;SDS011;5212;47.892;16.406;2022-07-01T02:55:30;10.53;;;9.57;;
10333;SDS011;5212;47.892;16.406;2022-07-01T02:57:57;10.10;;;9.10;;
10333;SDS011;5212;47.892;16.406;2022-07-01T03:00:24;10.17;;;9.27;;
10333;SDS011;5212;47.892;16.406;2022-07-01T03:02:51;10.37;;;9.37;;
10333;SDS011;5212;47.892;16.406;2022-07-01T03:05:20;9.63;;;8.83;;
10333;SDS011;5212;47.892;16.406;2022-07-01T03:07:47;10.33;;;9.10;;
10333;SDS011;5212;47.892;16.406;2022-07-01T03:10:14;9.70;;;8.80;;
10333;SDS011;5212;47.892;16.406;2022-07-01T03:12:41;11.47;;;9.83;;
10333;SDS011;5212;47.892;16.406;2022-07-01T03:15:09;10.53;;;9.53;;
10333;SDS011;5212;47.892;16.406;2022-07-01T03:17:42;10.47;;;9.47;;
10333;SDS011;5212;47.892;16.406;2022-07-01T03:20:11;9.73;;;8.83;;
10333;SDS011;5212;47.892;16.406;2022-07-01T03:22:40;9.47;;;8.57;;
10333;SDS011;5212;47.892;16.406;2022-07-01T03:25:08;9.30;;;8.40;;
10333;SDS011;5212;47.892;16.406;2022-07-01T03:27:35;9.80;;;8.90;;
10333;SDS011;5212;47.892;16.406;2022-07-01T03:30:03;11.27;;;10.17;;
10333;SDS011;5212;47.892;16.406;2022-07-01T03:32:31;9.90;;;8.90;;
10333;SDS011;5212;47.892;16.406;2022-07-01T03:34:59;9.90;;;8.90;;
10333;SDS011;5212;47.892;16.406;2022-07-01T03:37:47;9.60;;;8.70;;
10333;SDS011;5212;47.892;16.406;2022-07-01T03:40:14;10.37;;;9.37;;
10333;SDS011;5212;47.892;16.406;2022-07-01T03:42:41;10.60;;;9.47;;
10333;SDS011;5212;47.892;16.406;2022-07-01T03:45:09;10.80;;;9.80;;
10333;SDS011;5212;47.892;16.406;2022-07-01T03:47:36;10.87;;;9.87;;
10333;SDS011;5212;47.892;16.406;2022-07-01T03:50:04;11.97;;;10.80;;
10333;SDS011;5212;47.892;16.406;2022-07-01T03:52:32;12.33;;;11.23;;
10333;SDS011;5212;47.892;16.406;2022-07-01T03:55:01;12.40;;;11.10;;
10333;SDS011;5212;47.892;16.406;2022-07-01T03:57:27;11.57;;;10.57;;
10333;SDS011;5212;47.892;16.406;2022-07-01T03:59:54;11.57;;;10.40;;
10333;SDS011;5212;47.892;16.406;2022-07-01T04:02:21;11.60;;;10.50;;
10333;SDS011;5212;47.892;16.406;2022-07-01T04:04:48;10.67;;;9.67;;
10333;SDS011;5212;47.892;16.406;2022-07-01T04:07:15;11.07;;;9.97;;
10333;SDS011;5212;47.892;16.406;2022-07-01T04:09:42;11.20;;;10.13;;
10333;SDS011;5212;47.892;16.406;2022-07-01T04:12:12;12.43;;;11.23;;
10333;SDS011;5212;47.892;16.406;2022-07-01T04:14:39;11.97;;;10.87;;
10333;SDS011;5212;47.892;16.406;2022-07-01T04:17:06;10.80;;;9.80;;
10333;SDS011;5212;47.892;16.406;2022-07-01T04:19:33;12.27;;;11.07;;
10333;SDS011;5212;47.892;16.406;2022-07-01T04:22:01;12.27;;;11.13;;
10333;SDS011;5212;47.892;16.406;2022-07-01T04:24:45;11.23;;;10.23;;
10333;SDS011;5212;47.892;16.406;2022-07-01T04:27:14;11.80;;;10.77;;
10333;SDS011;5212;47.892;16.406;2022-07-01T04:29:40;11.13;;;10.13;;
10333;SDS011;5212;47.892;16.406;2022-07-01T04:32:08;10.87;;;9.87;;
10333;SDS011;5212;47.892;16.406;2022-07-01T04:34:36;11.37;;;10.27;;
10333;SDS011;5212;47.892;16.406;2022-07-01T04:37:03;10.80;;;9.80;;
10333;SDS011;5212;47.892;16.406;2022-07-01T04:39:30;12.80;;;11.60;;
10333;SDS011;5212;47.892;16.406;2022-07-01T04:41:57;14.97;;;13.60;;
10333;SDS011;5212;47.892;16.406;2022-07-01T04:44:28;12.53;;;11.33;;
10333;SDS011;5212;47.892;16.406;2022-07-01T04:46:56;12.30;;;11.10;;
10333;SDS011;5212;47.892;16.406;2022-07-01T04:49:23;11.40;;;10.40;;
10333;SDS011;5212;47.892;16.406;2022-07-01T04:51:50;11.30;;;10.30;;
10333;SDS011;5212;47.892;16.406;2022-07-01T04:54:17;11.53;;;10.43;;
10333;SDS011;5212;47.892;16.406;2022-07-01T04:56:45;12.00;;;10.87;;
10333;SDS011;5212;47.892;16.406;2022-07-01T04:59:12;11.07;;;10.07;;
10333;SDS011;5212;47.892;16.406;2022-07-01T05:01:41;12.30;;;10.97;;
10333;SDS011;5212;47.892;16.406;2022-07-01T05:04:09;11.23;;;10.17;;
10333;SDS011;5212;47.892;16.406;2022-07-01T05:06:36;15.87;;;14.10;;
10333;SDS011;5212;47.892;16.406;2022-07-01T05:09:03;15.73;;;14.17;;
10333;SDS011;5212;47.892;16.406;2022-07-01T05:11:31;15.97;;;14.40;;
10333;SDS011;5212;47.892;16.406;2022-07-01T05:13:58;15.53;;;14.03;;
10333;SDS011;5212;47.892;16.406;2022-07-01T05:16:25;15.40;;;13.90;;
10333;SDS011;5212;47.892;16.406;2022-07-01T05:18:54;13.20;;;11.80;;
10333;SDS011;5212;47.892;16.406;2022-07-01T05:21:38;14.63;;;12.30;;
10333;SDS011;5212;47.892;16.406;2022-07-01T05:24:25;12.77;;;11.53;;
10333;SDS011;5212;47.892;16.406;2022-07-01T05:26:53;13.20;;;11.17;;
10333;SDS011;5212;47.892;16.406;2022-07-01T05:29:21;13.80;;;12.50;;
10333;SDS011;5212;47.892;16.406;2022-07-01T05:31:48;14.33;;;12.83;;
10333;SDS011;5212;47.892;16.406;2022-07-01T05:34:16;13.37;;;12.10;;
10333;SDS011;5212;47.892;16.406;2022-07-01T05:36:43;12.90;;;11.60;;
10333;SDS011;5212;47.892;16.406;2022-07-01T05:39:10;11.77;;;10.77;;
10333;SDS011;5212;47.892;16.406;2022-07-01T05:41:40;13.00;;;11.60;;
10333;SDS011;5212;47.892;16.406;2022-07-01T05:44:07;11.40;;;10.40;;
10333;SDS011;5212;47.892;16.406;2022-07-01T05:46:34;11.30;;;10.20;;
10333;SDS011;5212;47.892;16.406;2022-07-01T05:49:02;11.20;;;10.10;;
10333;SDS011;5212;47.892;16.406;2022-07-01T05:51:31;10.40;;;9.50;;
10333;SDS011;5212;47.892;16.406;2022-07-01T05:53:58;11.30;;;10.20;;
10333;SDS011;5212;47.892;16.406;2022-07-01T05:56:25;10.13;;;9.20;;
10333;SDS011;5212;47.892;16.406;2022-07-01T05:58:53;11.20;;;10.07;;
10333;SDS011;5212;47.892;16.406;2022-07-01T06:01:20;12.33;;;10.63;;
10333;SDS011;5212;47.892;16.406;2022-07-01T06:03:49;10.93;;;9.83;;
10333;SDS011;5212;47.892;16.406;2022-07-01T06:06:17;11.33;;;10.23;;
10333;SDS011;5212;47.892;16.406;2022-07-01T06:08:46;10.97;;;9.43;;
10333;SDS011;5212;47.892;16.406;2022-07-01T06:11:15;10.63;;;9.63;;
10333;SDS011;5212;47.892;16.406;2022-07-01T06:13:42;10.80;;;9.77;;
10333;SDS011;5212;47.892;16.406;2022-07-01T06:16:09;9.17;;;8.37;;
10333;SDS011;5212;47.892;16.406;2022-07-01T06:18:36;9.17;;;8.27;;
10333;SDS011;5212;47.892;16.406;2022-07-01T06:21:03;6.20;;;5.60;;
10333;SDS011;5212;47.892;16.406;2022-07-01T06:23:30;5.80;;;5.30;;
10333;SDS011;5212;47.892;16.406;2022-07-01T06:25:59;5.10;;;4.17;;
10333;SDS011;5212;47.892;16.406;2022-07-01T06:28:26;4.90;;;3.20;;
10333;SDS011;5212;47.892;16.406;2022-07-01T06:30:55;3.80;;;2.50;;
10333;SDS011;5212;47.892;16.406;2022-07-01T06:33:22;2.60;;;2.40;;
10333;SDS011;5212;47.892;16.406;2022-07-01T06:35:50;2.80;;;2.50;;
10333;SDS011;5212;47.892;16.406;2022-07-01T06:38:17;3.23;;;2.70;;
10333;SDS011;5212;47.892;16.406;2022-07-01T06:40:44;3.47;;;2.40;;
10333;SDS011;5212;47.892;16.406;2022-07-01T06:43:34;3.70;;;2.57;;
10333;SDS011;5212;47.892;16.406;2022-07-01T06:46:01;3.63;;;2.70;;
10333;SDS011;5212;47.892;16.406;2022-07-01T06:48:29;3.40;;;2.77;;
10333;SDS011;5212;47.892;16.406;2022-07-01T06:50:56;3.40;;;3.10;;
10333;SDS011;5212;47.892;16.406;2022-07-01T06:53:23;5.17;;;2.87;;
10333;SDS011;5212;47.892;16.406;2022-07-01T06:55:50;3.50;;;3.10;;
10333;SDS011;5212;47.892;16.406;2022-07-01T06:58:17;3.40;;;3.10;;
10333;SDS011;5212;47.892;16.406;2022-07-01T07:00:47;3.90;;;2.87;;
10333;SDS011;5212;47.892;16.406;2022-07-01T07:03:14;3.20;;;2.90;;
10333;SDS011;5212;47.892;16.406;2022-07-01T07:05:41;3.20;;;2.90;;
10333;SDS011;5212;47.892;16.406;2022-07-01T07:08:09;3.07;;;2.40;;
10333;SDS011;5212;47.892;16.406;2022-07-01T07:10:35;2.90;;;2.50;;
10333;SDS011;5212;47.892;16.406;2022-07-01T07:13:02;2.47;;;2.27;;
10333;SDS011;5212;47.892;16.406;2022-07-01T07:15:30;2.77;;;2.47;;
10333;SDS011;5212;47.892;16.406;2022-07-01T07:17:58;2.50;;;2.30;;
10333;SDS011;5212;47.892;16.406;2022-07-01T07:20:26;2.53;;;2.33;;
10333;SDS011;5212;47.892;16.406;2022-07-01T07:22:53;3.07;;;2.33;;
10333;SDS011;5212;47.892;16.406;2022-07-01T07:25:20;2.60;;;2.40;;
10333;SDS011;5212;47.892;16.406;2022-07-01T07:27:48;3.57;;;2.50;;
10333;SDS011;5212;47.892;16.406;2022-07-01T07:30:15;2.43;;;2.23;;
10333;SDS011;5212;47.892;16.406;2022-07-01T07:32:42;4.10;;;2.43;;
10333;SDS011;5212;47.892;16.406;2022-07-01T07:35:11;3.37;;;2.40;;
10333;SDS011;5212;47.892;16.406;2022-07-01T07:37:39;3.83;;;2.70;;
10333;SDS011;5212;47.892;16.406;2022-07-01T07:40:07;4.00;;;2.43;;
10333;SDS011;5212;47.892;16.406;2022-07-01T07:42:37;6.60;;;2.40;;
10333;SDS011;5212;47.892;16.406;2022-07-01T07:45:04;3.60;;;2.77;;
10333;SDS011;5212;47.892;16.406;2022-07-01T07:47:33;3.20;;;2.57;;
10333;SDS011;5212;47.892;16.406;2022-07-01T07:50:01;3.80;;;2.90;;
10333;SDS011;5212;47.892;16.406;2022-07-01T07:52:30;3.20;;;2.87;;
10333;SDS011;5212;47.892;16.406;2022-07-01T07:54:57;3.30;;;3.00;;
10333;SDS011;5212;47.892;16.406;2022-07-01T07:57:27;3.67;;;3.10;;
10333;SDS011;5212;47.892;16.406;2022-07-01T07:59:55;4.83;;;3.07;;
10333;SDS011;5212;47.892;16.406;2022-07-01T08:02:24;3.50;;;3.20;;
10333;SDS011;5212;47.892;16.406;2022-07-01T08:04:51;4.07;;;3.00;;
10333;SDS011;5212;47.892;16.406;2022-07-01T08:07:22;4.13;;;3.33;;
10333;SDS011;5212;47.892;16.406;2022-07-01T08:09:51;3.30;;;3.00;;
10333;SDS011;5212;47.892;16.406;2022-07-01T08:12:19;4.90;;;2.87;;
10333;SDS011;5212;47.892;16.406;2022-07-01T08:14:51;4.00;;;3.20;;
10333;SDS011;5212;47.892;16.406;2022-07-01T08:17:18;3.27;;;2.77;;
10333;SDS011;5212;47.892;16.406;2022-07-01T08:19:45;4.40;;;3.00;;
10333;SDS011;5212;47.892;16.406;2022-07-01T08:22:13;3.77;;;2.90;;
10333;SDS011;5212;47.892;16.406;2022-07-01T08:24:40;3.40;;;3.10;;
10333;SDS011;5212;47.892;16.406;2022-07-01T08:27:09;3.60;;;2.93;;
10333;SDS011;5212;47.892;16.406;2022-07-01T08:29:37;3.27;;;2.97;;
10333;SDS011;5212;47.892;16.406;2022-07-01T08:32:04;5.67;;;2.80;;
10333;SDS011;5212;47.892;16.406;2022-07-01T08:34:32;3.03;;;2.73;;
10333;SDS011;5212;47.892;16.406;2022-07-01T08:37:00;3.77;;;2.97;;
10333;SDS011;5212;47.892;16.406;2022-07-01T08:39:35;3.00;;;2.70;;
10333;SDS011;5212;47.892;16.406;2022-07-01T08:42:03;3.90;;;3.00;;
10333;SDS011;5212;47.892;16.406;2022-07-01T08:44:35;3.03;;;2.80;;
10333;SDS011;5212;47.892;16.406;2022-07-01T08:47:04;3.40;;;2.93;;
10333;SDS011;5212;47.892;16.406;2022-07-01T08:49:31;3.30;;;3.00;;
10333;SDS011;5212;47.892;16.406;2022-07-01T08:51:59;3.60;;;2.90;;
10333;SDS011;5212;47.892;16.406;2022-07-01T08:54:26;3.53;;;3.00;;
10333;SDS011;5212;47.892;16.406;2022-07-01T08:56:54;3.03;;;2.80;;
10333;SDS011;5212;47.892;16.406;2022-07-01T08:59:21;3.13;;;2.93;;
10333;SDS011;5212;47.892;16.406;2022-07-01T09:01:56;3.40;;;3.10;;
10333;SDS011;5212;47.892;16.406;2022-07-01T09:04:24;4.73;;;3.53;;
10333;SDS011;5212;47.892;16.406;2022-07-01T09:06:56;3.43;;;3.10;;
10333;SDS011;5212;47.892;16.406;2022-07-01T09:09:27;3.80;;;3.50;;
10333;SDS011;5212;47.892;16.406;2022-07-01T09:11:55;3.40;;;3.10;;
10333;SDS011;5212;47.892;16.406;2022-07-01T09:14:23;3.50;;;3.20;;
10333;SDS011;5212;47.892;16.406;2022-07-01T09:16:58;6.43;;;3.47;;
10333;SDS011;5212;47.892;16.406;2022-07-01T09:19:35;3.40;;;3.10;;
10333;SDS011;5212;47.892;16.406;2022-07-01T09:22:03;3.30;;;3.00;;
10333;SDS011;5212;47.892;16.406;2022-07-01T09:24:35;3.57;;;3.10;;
10333;SDS011;5212;47.892;16.406;2022-07-01T09:27:03;4.03;;;3.63;;
10333;SDS011;5212;47.892;16.406;2022-07-01T09:29:35;4.10;;;3.47;;
10333;SDS011;5212;47.892;16.406;2022-07-01T09:32:06;4.37;;;3.63;;
10333;SDS011;5212;47.892;16.406;2022-07-01T09:34:34;5.03;;;3.50;;
10333;SDS011;5212;47.892;16.406;2022-07-01T09:37:07;4.53;;;3.60;;
10333;SDS011;5212;47.892;16.406;2022-07-01T09:39:41;5.20;;;3.50;;
10333;SDS011;5212;47.892;16.406;2022-07-01T09:42:09;4.77;;;3.63;;
10333;SDS011;5212;47.892;16.406;2022-07-01T09:44:36;4.27;;;3.87;;
10333;SDS011;5212;47.892;16.406;2022-07-01T09:47:19;4.13;;;3.50;;
10333;SDS011;5212;47.892;16.406;2022-07-01T09:49:49;3.60;;;3.20;;
10333;SDS011;5212;47.892;16.406;2022-07-01T09:52:16;4.40;;;3.57;;
10333;SDS011;5212;47.892;16.406;2022-07-01T09:54:43;4.30;;;3.90;;
10333;SDS011;5212;47.892;16.406;2022-07-01T09:57:12;4.87;;;4.27;;
10333;SDS011;5212;47.892;16.406;2022-07-01T09:59:40;4.90;;;3.90;;
10333;SDS011;5212;47.892;16.406;2022-07-01T10:02:08;4.43;;;4.00;;
10333;SDS011;5212;47.892;16.406;2022-07-01T10:04:38;4.83;;;4.43;;
10333;SDS011;5212;47.892;16.406;2022-07-01T10:07:13;4.73;;;4.33;;
10333;SDS011;5212;47.892;16.406;2022-07-01T10:12:34;4.83;;;4.07;;
10333;SDS011;5212;47.892;16.406;2022-07-01T10:15:03;4.80;;;4.30;;
10333;SDS011;5212;47.892;16.406;2022-07-01T10:17:33;4.70;;;4.20;;
10333;SDS011;5212;47.892;16.406;2022-07-01T10:20:11;5.03;;;4.53;;
10333;SDS011;5212;47.892;16.406;2022-07-01T10:22:40;4.33;;;3.93;;
10333;SDS011;5212;47.892;16.406;2022-07-01T10:28:11;5.80;;;4.50;;
10333;SDS011;5212;47.892;16.406;2022-07-01T10:30:48;4.72;;;4.10;;
10333;SDS011;5212;47.892;16.406;2022-07-01T10:33:29;4.90;;;4.50;;
10333;SDS011;5212;47.892;16.406;2022-07-01T10:36:06;5.07;;;4.20;;
10333;SDS011;5212;47.892;16.406;2022-07-01T10:41:59;7.57;;;4.68;;
10333;SDS011;5212;47.892;16.406;2022-07-01T10:44:34;4.53;;;4.13;;
10333;SDS011;5212;47.892;16.406;2022-07-01T10:47:04;4.93;;;4.43;;
10333;SDS011;5212;47.892;16.406;2022-07-01T10:52:25;4.63;;;4.13;;
10333;SDS011;5212;47.892;16.406;2022-07-01T10:54:53;4.28;;;3.97;;
10333;SDS011;5212;47.892;16.406;2022-07-01T10:57:32;5.50;;;4.55;;
10333;SDS011;5212;47.892;16.406;2022-07-01T11:03:06;4.50;;;4.10;;
10333;SDS011;5212;47.892;16.406;2022-07-01T11:08:18;4.40;;;4.00;;
10333;SDS011;5212;47.892;16.406;2022-07-01T11:10:48;5.53;;;4.00;;
10333;SDS011;5212;47.892;16.406;2022-07-01T11:13:19;4.75;;;3.90;;
10333;SDS011;5212;47.892;16.406;2022-07-01T11:15:47;4.60;;;4.10;;
10333;SDS011;5212;47.892;16.406;2022-07-01T11:18:16;4.43;;;3.90;;
10333;SDS011;5212;47.892;16.406;2022-07-01T11:20:46;4.15;;;3.83;;
10333;SDS011;5212;47.892;16.406;2022-07-01T11:23:13;4.75;;;3.88;;
10333;SDS011;5212;47.892;16.406;2022-07-01T11:25:43;6.32;;;4.78;;
10333;SDS011;5212;47.892;16.406;2022-07-01T11:28:14;4.25;;;3.80;;
10333;SDS011;5212;47.892;16.406;2022-07-01T11:30:41;5.75;;;4.30;;
10333;SDS011;5212;47.892;16.406;2022-07-01T11:33:08;4.72;;;4.30;;
10333;SDS011;5212;47.892;16.406;2022-07-01T11:35:36;4.40;;;4.00;;
10333;SDS011;5212;47.892;16.406;2022-07-01T11:38:21;4.10;;;3.53;;
10333;SDS011;5212;47.892;16.406;2022-07-01T11:41:10;3.72;;;3.42;;
10333;SDS011;5212;47.892;16.406;2022-07-01T11:43:44;5.85;;;3.97;;
10333;SDS011;5212;47.892;16.406;2022-07-01T11:46:12;4.22;;;3.60;;
10333;SDS011;5212;47.892;16.406;2022-07-01T11:48:40;5.55;;;4.00;;
10333;SDS011;5212;47.892;16.406;2022-07-01T11:51:11;4.47;;;3.88;;
10333;SDS011;5212;47.892;16.406;2022-07-01T11:53:40;5.95;;;3.92;;
10333;SDS011;5212;47.892;16.406;2022-07-01T11:56:08;4.10;;;3.70;;
10333;SDS011;5212;47.892;16.406;2022-07-01T11:58:45;4.93;;;3.80;;
10333;SDS011;5212;47.892;16.406;2022-07-01T12:01:20;5.10;;;3.80;;
10333;SDS011;5212;47.892;16.406;2022-07-01T12:03:48;4.32;;;3.53;;
10333;SDS011;5212;47.892;16.406;2022-07-01T12:06:16;4.35;;;3.95;;
10333;SDS011;5212;47.892;16.406;2022-07-01T12:08:44;4.53;;;3.55;;
10333;SDS011;5212;47.892;16.406;2022-07-01T12:11:13;4.30;;;3.90;;
10333;SDS011;5212;47.892;16.406;2022-07-01T12:13:46;4.28;;;3.90;;
10333;SDS011;5212;47.892;16.406;2022-07-01T12:16:23;4.95;;;3.63;;
10333;SDS011;5212;47.892;16.406;2022-07-01T12:18:54;4.15;;;3.72;;
10333;SDS011;5212;47.892;16.406;2022-07-01T12:21:26;4.60;;;3.90;;
10333;SDS011;5212;47.892;16.406;2022-07-01T12:24:08;5.22;;;3.85;;
10333;SDS011;5212;47.892;16.406;2022-07-01T12:26:49;3.92;;;3.60;;
10333;SDS011;5212;47.892;16.406;2022-07-01T12:29:22;3.40;;;3.10;;
10333;SDS011;5212;47.892;16.406;2022-07-01T12:31:56;3.92;;;3.25;;
10333;SDS011;5212;47.892;16.406;2022-07-01T12:34:27;5.22;;;3.70;;
10333;SDS011;5212;47.892;16.406;2022-07-01T12:37:03;5.35;;;3.58;;
10333;SDS011;5212;47.892;16.406;2022-07-01T12:39:46;4.03;;;3.50;;
10333;SDS011;5212;47.892;16.406;2022-07-01T12:42:24;4.75;;;4.00;;
10333;SDS011;5212;47.892;16.406;2022-07-01T12:44:54;4.93;;;4.43;;
10333;SDS011;5212;47.892;16.406;2022-07-01T12:47:26;4.70;;;4.30;;
10333;SDS011;5212;47.892;16.406;2022-07-01T12:50:10;3.80;;;3.50;;
10333;SDS011;5212;47.892;16.406;2022-07-01T12:52:38;4.33;;;3.50;;
10333;SDS011;5212;47.892;16.406;2022-07-01T12:55:17;4.27;;;3.87;;
10333;SDS011;5212;47.892;16.406;2022-07-01T12:57:52;6.20;;;4.73;;
10333;SDS011;5212;47.892;16.406;2022-07-01T13:00:20;5.63;;;4.33;;
10333;SDS011;5212;47.892;16.406;2022-07-01T13:02:51;6.27;;;4.37;;
10333;SDS011;5212;47.892;16.406;2022-07-01T13:05:22;4.33;;;3.93;;
10333;SDS011;5212;47.892;16.406;2022-07-01T13:07:50;6.70;;;4.37;;
10333;SDS011;5212;47.892;16.406;2022-07-01T13:10:17;6.57;;;4.60;;
10333;SDS011;5212;47.892;16.406;2022-07-01T13:12:47;5.87;;;4.10;;
10333;SDS011;5212;47.892;16.406;2022-07-01T13:15:19;4.80;;;3.90;;
10333;SDS011;5212;47.892;16.406;2022-07-01T13:17:47;5.17;;;3.87;;
10333;SDS011;5212;47.892;16.406;2022-07-01T13:20:15;4.73;;;3.70;;
10333;SDS011;5212;47.892;16.406;2022-07-01T13:22:42;5.27;;;3.90;;
10333;SDS011;5212;47.892;16.406;2022-07-01T13:25:09;4.00;;;3.70;;
10333;SDS011;5212;47.892;16.406;2022-07-01T13:27:37;5.37;;;4.00;;
10333;SDS011;5212;47.892;16.406;2022-07-01T13:30:05;5.03;;;3.97;;
10333;SDS011;5212;47.892;16.406;2022-07-01T13:32:43;5.30;;;3.83;;
10333;SDS011;5212;47.892;16.406;2022-07-01T13:35:11;10.37;;;4.40;;
10333;SDS011;5212;47.892;16.406;2022-07-01T13:37:39;4.03;;;3.60;;
10333;SDS011;5212;47.892;16.406;2022-07-01T13:40:07;4.20;;;3.70;;
10333;SDS011;5212;47.892;16.406;2022-07-01T13:42:35;4.87;;;3.60;;
10333;SDS011;5212;47.892;16.406;2022-07-01T13:45:02;5.77;;;3.70;;
10333;SDS011;5212;47.892;16.406;2022-07-01T13:47:30;4.43;;;3.77;;
10333;SDS011;5212;47.892;16.406;2022-07-01T13:49:59;4.87;;;3.70;;
10333;SDS011;5212;47.892;16.406;2022-07-01T13:52:29;4.30;;;3.90;;
10333;SDS011;5212;47.892;16.406;2022-07-01T13:54:56;4.10;;;3.70;;
10333;SDS011;5212;47.892;16.406;2022-07-01T13:57:28;4.37;;;3.90;;
10333;SDS011;5212;47.892;16.406;2022-07-01T14:00:05;8.00;;;4.03;;
10333;SDS011;5212;47.892;16.406;2022-07-01T14:02:38;4.50;;;3.97;;
10333;SDS011;5212;47.892;16.406;2022-07-01T14:05:10;4.70;;;4.20;;
10333;SDS011;5212;47.892;16.406;2022-07-01T14:07:38;5.00;;;3.83;;
10333;SDS011;5212;47.892;16.406;2022-07-01T14:10:05;4.20;;;3.70;;
10333;SDS011;5212;47.892;16.406;2022-07-01T14:12:33;4.13;;;3.73;;
10333;SDS011;5212;47.892;16.406;2022-07-01T14:15:00;5.43;;;4.27;;
10333;SDS011;5212;47.892;16.406;2022-07-01T14:17:28;6.20;;;4.13;;
10333;SDS011;5212;47.892;16.406;2022-07-01T14:19:55;4.67;;;4.00;;
10333;SDS011;5212;47.892;16.406;2022-07-01T14:22:25;6.37;;;4.13;;
10333;SDS011;5212;47.892;16.406;2022-07-01T14:24:52;7.03;;;4.07;;
10333;SDS011;5212;47.892;16.406;2022-07-01T14:27:19;5.23;;;3.90;;
10333;SDS011;5212;47.892;16.406;2022-07-01T14:29:54;5.20;;;4.10;;
10333;SDS011;5212;47.892;16.406;2022-07-01T14:32:21;4.27;;;3.87;;
10333;SDS011;5212;47.892;16.406;2022-07-01T14:34:52;5.13;;;4.50;;
10333;SDS011;5212;47.892;16.406;2022-07-01T14:37:20;6.67;;;4.10;;
10333;SDS011;5212;47.892;16.406;2022-07-01T14:39:49;5.53;;;3.97;;
10333;SDS011;5212;47.892;16.406;2022-07-01T14:42:26;5.33;;;4.07;;
10333;SDS011;5212;47.892;16.406;2022-07-01T14:44:58;4.30;;;3.90;;
10333;SDS011;5212;47.892;16.406;2022-07-01T14:47:29;5.50;;;4.10;;
10333;SDS011;5212;47.892;16.406;2022-07-01T14:49:56;6.27;;;4.13;;
10333;SDS011;5212;47.892;16.406;2022-07-01T14:52:23;4.57;;;4.10;;
10333;SDS011;5212;47.892;16.406;2022-07-01T14:54:56;4.50;;;4.10;;
10333;SDS011;5212;47.892;16.406;2022-07-01T14:57:25;7.10;;;4.27;;
10333;SDS011;5212;47.892;16.406;2022-07-01T14:59:52;5.47;;;4.40;;
10333;SDS011;5212;47.892;16.406;2022-07-01T15:02:20;4.40;;;4.00;;
10333;SDS011;5212;47.892;16.406;2022-07-01T15:04:49;5.07;;;4.57;;
10333;SDS011;5212;47.892;16.406;2022-07-01T15:07:18;4.43;;;4.00;;
10333;SDS011;5212;47.892;16.406;2022-07-01T15:09:49;4.33;;;3.87;;